Time;durP1;ratioP1;P1;durP2;ratioP2;P2;SDS_P1;SDS_P2;PMS_P1;PMS_P2;Temp;Humidity;BMP_temperature;BMP_pressure;BME280_temperature;BME280_humidity;BME280_pressure;Samples;Min_cycle;Max_cycle;Signal;HPM_P1;HPM_P2
2021/09/19 00:01:10;;;;;;;37.72;27.38;;;;;;;17.61;54.27;95164.22;5011302;28;20042;-79
2021/09/19 00:03:35;;;;;;;29.42;23.98;;;;;;;17.58;54.17;95167.59;5010943;28;20518;-78
2021/09/19 00:06:01;;;;;;;26.60;22.05;;;;;;;17.55;54.25;95160.19;5012005;28;20077;-78
2021/09/19 00:08:29;;;;;;;37.63;27.70;;;;;;;17.56;54.19;95172.53;5011801;28;20702;-78
2021/09/19 00:10:55;;;;;;;30.58;24.25;;;;;;;17.58;54.28;95175.66;5008089;28;20026;-79
2021/09/19 00:13:21;;;;;;;37.55;26.25;;;;;;;17.51;54.23;95166.66;5012071;28;20042;-79
2021/09/19 00:15:46;;;;;;;38.50;26.08;;;;;;;17.38;54.28;95157.88;5012285;28;20125;-80
2021/09/19 00:18:12;;;;;;;40.45;27.40;;;;;;;17.37;54.30;95157.09;5011091;28;20530;-79
2021/09/19 00:20:39;;;;;;;39.72;27.67;;;;;;;17.36;54.42;95168.97;5011157;28;20048;-79
2021/09/19 00:23:08;;;;;;;37.80;27.35;;;;;;;17.30;54.53;95162.28;5013368;28;20643;-79
2021/09/19 00:25:33;;;;;;;29.65;24.63;;;;;;;17.29;54.53;95160.72;5011349;28;20053;-79
2021/09/19 00:27:58;;;;;;;38.03;27.30;;;;;;;17.31;54.69;95166.53;5011842;28;20034;-79
2021/09/19 00:30:24;;;;;;;27.65;22.98;;;;;;;17.22;54.58;95151.69;4994062;28;20514;-78
2021/09/19 00:32:49;;;;;;;36.50;26.20;;;;;;;17.29;54.32;95154.56;5011653;28;20038;-79
2021/09/19 00:35:15;;;;;;;35.95;25.80;;;;;;;17.24;54.32;95160.19;5011044;28;20101;-78
2021/09/19 00:37:40;;;;;;;29.05;23.10;;;;;;;17.20;54.45;95165.50;5013590;28;20384;-78
2021/09/19 00:40:07;;;;;;;24.58;21.90;;;;;;;17.19;54.66;95163.13;5011543;28;20030;-78
2021/09/19 00:42:33;;;;;;;32.13;24.88;;;;;;;16.95;54.79;95126.44;4994344;28;20033;-79
2021/09/19 00:45:09;;;;;;;37.03;26.52;;;;;;;17.20;54.88;95153.94;5011759;28;20507;-79
2021/09/19 00:47:35;;;;;;;31.02;25.35;;;;;;;17.20;55.01;95148.56;5011682;28;20046;-79
2021/09/19 00:50:01;;;;;;;27.30;22.55;;;;;;;17.19;54.85;95149.69;5013154;28;20040;-79
2021/09/19 00:52:27;;;;;;;28.33;22.95;;;;;;;17.15;54.96;95136.19;5010944;28;20034;-78
2021/09/19 00:54:56;;;;;;;33.42;25.92;;;;;;;17.13;55.27;95139.19;5011179;28;20694;-80
2021/09/19 00:57:25;;;;;;;33.97;25.52;;;;;;;17.14;55.40;95138.06;5011398;28;20092;-79
2021/09/19 00:59:50;;;;;;;27.73;22.80;;;;;;;17.09;55.39;95127.56;5011127;28;20030;-79
2021/09/19 01:02:16;;;;;;;44.10;26.85;;;;;;;17.17;54.88;95141.19;5011236;28;20587;-79
2021/09/19 01:04:42;;;;;;;38.65;27.15;;;;;;;17.15;54.66;95136.19;4995556;28;20025;-78
2021/09/19 01:07:08;;;;;;;44.85;30.38;;;;;;;17.15;54.63;95136.19;5010878;28;20038;-79
2021/09/19 01:09:37;;;;;;;35.67;25.58;;;;;;;17.05;54.63;95134.78;5010624;28;20364;-79
2021/09/19 01:12:02;;;;;;;44.03;30.05;;;;;;;17.03;54.87;95139.69;4993876;28;20030;-80
2021/09/19 01:14:30;;;;;;;55.75;31.45;;;;;;;17.05;54.62;95142.06;5010723;28;20048;-79
2021/09/19 01:16:58;;;;;;;42.03;27.77;;;;;;;16.99;54.83;95132.66;5012899;28;20026;-78
2021/09/19 01:19:25;;;;;;;43.85;30.30;;;;;;;16.91;54.86;95122.88;5010807;28;20065;-79
2021/09/19 01:21:53;;;;;;;45.30;29.42;;;;;;;16.89;54.74;95131.28;5010489;28;20193;-80
2021/09/19 01:24:20;;;;;;;44.72;28.95;;;;;;;16.81;54.76;95122.25;5010491;28;20038;-79
2021/09/19 01:26:46;;;;;;;31.80;24.02;;;;;;;16.79;54.53;95119.13;5010801;28;20096;-79
2021/09/19 01:29:11;;;;;;;43.38;28.45;;;;;;;16.80;54.70;95125.28;4993106;28;20053;-79
2021/09/19 01:31:38;;;;;;;32.25;25.02;;;;;;;16.87;54.91;95128.16;5011561;28;20030;-79
2021/09/19 01:34:04;;;;;;;42.08;25.55;;;;;;;16.84;54.54;95126.94;5009161;28;20046;-78
2021/09/19 01:36:36;;;;;;;48.50;28.20;;;;;;;16.82;54.18;95129.19;5009466;28;20033;-79
2021/09/19 01:39:02;;;;;;;;;;;;;;;16.80;54.58;95125.28;5010227;28;20062;-79
2021/09/19 01:41:28;;;;;;;33.17;23.52;;;;;;;16.73;54.74;95120.50;5010637;28;20371;-79
2021/09/19 01:43:54;;;;;;;36.10;23.90;;;;;;;16.71;54.59;95106.63;5012265;28;20040;-80
2021/09/19 01:46:20;;;;;;;35.88;25.25;;;;;;;16.70;54.58;95113.09;5010340;28;20034;-79
2021/09/19 01:48:46;;;;;;;32.58;23.90;;;;;;;16.70;54.54;95106.94;5009948;28;20037;-80
2021/09/19 01:51:12;;;;;;;21.90;19.63;;;;;;;16.71;54.52;95111.19;5010114;28;20034;-78
2021/09/19 01:53:39;;;;;;;39.15;25.90;;;;;;;16.69;54.76;95113.47;5010234;28;20403;-79
2021/09/19 01:56:06;;;;;;;40.85;27.42;;;;;;;16.64;54.50;95106.44;5012347;28;20026;-79
2021/09/19 01:58:31;;;;;;;38.13;25.48;;;;;;;16.62;54.39;95098.69;5010583;28;20037;-79
2021/09/19 02:00:59;;;;;;;40.00;25.98;;;;;;;16.61;54.54;95099.03;4992775;28;20511;-79
2021/09/19 02:03:25;;;;;;;32.53;23.02;;;;;;;16.39;54.52;95065.47;5010088;28;20034;-79
2021/09/19 02:05:50;;;;;;;22.63;20.25;;;;;;;16.53;54.41;95084.66;5010107;28;20083;-80
2021/09/19 02:08:16;;;;;;;26.02;21.27;;;;;;;16.56;54.44;95089.31;5010510;28;20072;-79
2021/09/19 02:10:41;;;;;;;31.55;23.48;;;;;;;16.52;54.67;95087.66;5012040;28;20030;-80
2021/09/19 02:13:07;;;;;;;32.17;24.38;;;;;;;16.47;54.70;95072.56;5010146;28;20038;-79
2021/09/19 02:15:32;;;;;;;28.75;22.90;;;;;;;16.36;55.00;95074.19;5010409;28;20038;-79
2021/09/19 02:17:58;;;;;;;39.80;25.42;;;;;;;16.45;55.53;95082.13;5010613;28;20774;-79
2021/09/19 02:20:23;;;;;;;33.80;24.27;;;;;;;16.52;55.51;95095.72;5010191;28;20026;-79
2021/09/19 02:22:49;;;;;;;36.58;24.50;;;;;;;16.47;55.08;95075.25;5011166;28;20145;-80
2021/09/19 02:25:15;;;;;;;26.83;21.52;;;;;;;16.52;54.50;95088.44;4992588;28;20062;-79
2021/09/19 02:27:41;;;;;;;32.88;24.60;;;;;;;16.51;54.78;95076.16;5010256;28;20034;-78
2021/09/19 02:30:08;;;;;;;30.73;24.42;;;;;;;16.48;54.91;95073.34;5009779;28;20042;-79
2021/09/19 02:32:34;;;;;;;37.00;25.20;;;;;;;16.38;54.79;95056.63;5009551;28;20120;-79
2021/09/19 02:34:59;;;;;;;30.58;23.05;;;;;;;16.47;54.74;95075.25;5010826;28;20122;-78
2021/09/19 02:37:26;;;;;;;45.13;28.23;;;;;;;16.27;55.14;95041.34;5008988;28;20076;-79
2021/09/19 02:39:52;;;;;;;37.53;25.60;;;;;;;16.41;54.77;95065.91;5008588;28;20096;-80
2021/09/19 02:42:17;;;;;;;39.85;24.95;;;;;;;16.43;55.14;95060.19;5009627;28;20620;-80
2021/09/19 02:44:43;;;;;;;42.72;27.80;;;;;;;16.37;54.68;95059.66;4991865;28;20034;-78
2021/09/19 02:47:08;;;;;;;30.48;23.15;;;;;;;16.39;54.57;95065.47;5009678;28;20121;-79
2021/09/19 02:49:34;;;;;;;50.35;29.88;;;;;;;16.34;54.52;95052.28;5015169;28;20029;-80
2021/09/19 02:52:00;;;;;;;50.90;31.63;;;;;;;16.36;54.91;95055.41;4995379;28;20038;-80
2021/09/19 02:54:25;;;;;;;35.63;25.85;;;;;;;16.30;54.80;95043.38;5013336;28;20088;-80
2021/09/19 02:56:51;;;;;;;29.25;21.45;;;;;;;16.30;55.11;95043.38;5013735;28;20121;-80
2021/09/19 02:59:18;;;;;;;43.97;28.17;;;;;;;16.28;55.00;95035.66;5013322;28;20104;-80
2021/09/19 03:01:43;;;;;;;30.45;22.25;;;;;;;16.24;54.83;95025.94;5015769;28;20070;-80
2021/09/19 03:04:08;;;;;;;36.95;24.65;;;;;;;16.30;55.02;95049.50;5013669;28;20041;-79
2021/09/19 03:06:34;;;;;;;43.60;27.05;;;;;;;16.28;54.65;95038.34;4991767;28;20092;-79
2021/09/19 03:08:59;;;;;;;50.45;31.08;;;;;;;16.25;54.83;95033.66;5013165;28;20493;-79
2021/09/19 03:11:24;;;;;;;42.28;27.63;;;;;;;16.24;54.61;95031.31;5013584;28;20264;-80
2021/09/19 03:13:50;;;;;;;44.47;28.30;;;;;;;16.06;54.52;95017.41;5015104;28;20674;-80
2021/09/19 03:16:15;;;;;;;40.47;26.83;;;;;;;16.05;54.71;95021.97;5013416;28;20093;-80
2021/09/19 03:18:41;;;;;;;40.17;26.80;;;;;;;15.92;54.77;94998.22;5012976;28;20068;-79
2021/09/19 03:21:06;;;;;;;38.33;25.42;;;;;;;16.02;54.71;95011.16;5012852;28;20049;-79
2021/09/19 03:23:32;;;;;;;41.28;25.40;;;;;;;15.95;54.55;94997.53;5012955;28;20034;-79
2021/09/19 03:25:57;;;;;;;28.08;22.35;;;;;;;15.95;54.88;95013.63;5014997;28;20037;-79
2021/09/19 03:28:23;;;;;;;29.73;22.13;;;;;;;15.89;54.94;94999.69;5013492;28;20042;-79
2021/09/19 03:30:48;;;;;;;33.47;24.02;;;;;;;15.94;55.09;95006.72;5012683;28;20077;-80
2021/09/19 03:33:13;;;;;;;28.90;21.58;;;;;;;15.95;54.82;94989.50;5013078;28;20395;-79
2021/09/19 03:35:39;;;;;;;36.20;25.38;;;;;;;15.91;54.73;94989.38;5013255;28;20508;-78
2021/09/19 03:38:04;;;;;;;34.13;25.30;;;;;;;15.95;54.77;94994.88;5014476;28;20041;-79
2021/09/19 03:40:30;;;;;;;47.53;28.38;;;;;;;15.93;55.05;94994.44;5012440;28;20065;-80
2021/09/19 03:42:55;;;;;;;49.53;28.63;;;;;;;15.92;55.22;94999.03;5012706;28;20038;-80
2021/09/19 03:45:24;;;;;;;44.30;27.92;;;;;;;15.91;55.13;95002.81;5012952;28;20034;-79
2021/09/19 03:47:50;;;;;;;44.63;26.95;;;;;;;15.94;55.00;95001.34;5011312;28;20389;-80
2021/09/19 03:50:16;;;;;;;31.85;23.70;;;;;;;15.92;55.00;94996.34;5010943;28;20049;-80
2021/09/19 03:52:41;;;;;;;46.78;28.48;;;;;;;15.90;55.25;95003.94;5012907;28;20073;-79
2021/09/19 03:55:07;;;;;;;38.22;25.55;;;;;;;15.79;54.70;94987.53;5011117;28;20515;-79
2021/09/19 03:57:33;;;;;;;38.90;24.77;;;;;;;15.79;55.33;94986.75;5010943;28;20554;-79
2021/09/19 03:59:58;;;;;;;49.03;28.40;;;;;;;15.86;55.02;94992.31;5009471;28;20064;-80
2021/09/19 04:02:24;;;;;;;56.17;31.75;;;;;;;15.93;55.37;94994.44;5012100;28;20476;-79
2021/09/19 04:04:49;;;;;;;37.53;25.20;;;;;;;15.87;55.08;94988.53;5012890;28;20116;-80
2021/09/19 04:07:14;;;;;;;49.78;29.98;;;;;;;15.82;54.96;94980.72;5011654;28;20171;-79
2021/09/19 04:09:40;;;;;;;51.75;29.13;;;;;;;15.92;55.37;94995.53;4994090;28;20110;-80
2021/09/19 04:12:05;;;;;;;39.03;26.90;;;;;;;15.91;55.30;94993.97;5012139;28;20449;-80
2021/09/19 04:14:30;;;;;;;55.85;31.48;;;;;;;15.92;55.30;94993.66;5012299;28;20048;-80
2021/09/19 04:16:56;;;;;;;39.92;26.38;;;;;;;15.88;55.22;94986.63;5014287;28;20107;-80
2021/09/19 04:19:21;;;;;;;45.15;27.23;;;;;;;15.74;55.08;94976.28;5010818;28;20049;-80
2021/09/19 04:21:47;;;;;;;65.50;32.45;;;;;;;15.84;55.26;95000.72;5011887;28;20120;-80
2021/09/19 04:24:13;;;;;;;39.90;26.05;;;;;;;15.89;55.06;95005.06;5010480;28;20042;-80
2021/09/19 04:26:38;;;;;;;62.00;32.58;;;;;;;15.89;55.31;95001.59;5011956;28;20093;-79
2021/09/19 04:29:03;;;;;;;58.20;30.23;;;;;;;15.82;54.82;95002.97;5013652;28;20636;-79
2021/09/19 04:31:29;;;;;;;61.45;32.25;;;;;;;15.76;54.98;95006.19;5011873;28;20038;-80
2021/09/19 04:33:54;;;;;;;54.00;30.75;;;;;;;15.71;55.24;95001.84;5011864;28;20049;-80
2021/09/19 04:36:20;;;;;;;65.13;32.70;;;;;;;15.79;54.90;95010.91;5011205;28;20584;-80
2021/09/19 04:38:45;;;;;;;59.92;33.15;;;;;;;15.76;54.92;95001.63;5011416;28;20104;-80
2021/09/19 04:41:10;;;;;;;54.90;29.58;;;;;;;15.68;55.33;95001.78;5011601;28;20028;-79
2021/09/19 04:43:36;;;;;;;78.28;36.90;;;;;;;15.71;55.43;95007.22;5013157;28;20430;-80
2021/09/19 04:46:01;;;;;;;80.78;38.15;;;;;;;15.72;55.37;94995.41;5011245;28;20434;-80
2021/09/19 04:48:27;;;;;;;92.45;42.03;;;;;;;15.71;55.27;95001.06;5011565;28;20388;-80
2021/09/19 04:50:52;;;;;;;93.07;43.10;;;;;;;15.75;55.15;95008.09;5011659;28;20034;-80
2021/09/19 04:53:18;;;;;;;67.80;33.80;;;;;;;15.73;55.09;95001.53;5010594;28;20072;-80
2021/09/19 04:55:43;;;;;;;88.78;40.35;;;;;;;15.74;54.82;95005.78;5013224;28;20068;-80
2021/09/19 04:58:08;;;;;;;89.97;42.30;;;;;;;15.70;54.85;95000.31;5011506;28;20380;-79
2021/09/19 05:00:34;;;;;;;90.05;40.88;;;;;;;15.71;55.35;95004.53;4993660;28;20026;-80
2021/09/19 05:02:59;;;;;;;88.30;41.17;;;;;;;15.68;54.96;95012.50;4993541;28;20044;-80
2021/09/19 05:05:25;;;;;;;71.88;36.63;;;;;;;15.70;55.26;95015.59;5011178;28;20101;-80
2021/09/19 05:07:50;;;;;;;75.72;37.15;;;;;;;15.74;55.27;95025.31;5012634;28;20395;-80
2021/09/19 05:10:15;;;;;;;64.65;33.80;;;;;;;15.71;55.04;95012.56;5010059;28;20034;-80
2021/09/19 05:12:41;;;;;;;77.43;37.25;;;;;;;15.80;54.77;95028.53;5010628;28;20043;-79
2021/09/19 05:15:07;;;;;;;52.47;30.00;;;;;;;15.85;55.00;95017.56;5011199;28;20038;-80
2021/09/19 05:17:32;;;;;;;55.22;30.25;;;;;;;15.89;55.04;95020.38;4993519;28;20038;-79
2021/09/19 05:19:58;;;;;;;86.35;40.15;;;;;;;15.92;55.08;95022.34;5012751;28;20017;-80
2021/09/19 05:22:23;;;;;;;74.22;36.30;;;;;;;15.97;54.82;95032.84;5010524;28;20084;-77
2021/09/19 05:24:49;;;;;;;57.30;33.13;;;;;;;15.93;54.66;95019.34;5010518;28;20030;-79
2021/09/19 05:27:14;;;;;;;54.58;30.25;;;;;;;16.00;54.29;95019.53;5010977;28;20030;-79
2021/09/19 05:29:39;;;;;;;55.03;32.58;;;;;;;15.94;54.62;95015.53;4992690;28;20099;-78
2021/09/19 05:32:05;;;;;;;43.00;27.80;;;;;;;16.00;54.71;95024.13;5012770;28;20025;-78
2021/09/19 05:34:31;;;;;;;56.97;32.03;;;;;;;16.13;54.30;95033.72;5010461;28;20091;-78
2021/09/19 05:37:00;;;;;;;40.50;27.08;;;;;;;16.18;54.19;95025.41;5010532;28;20042;-78
2021/09/19 05:39:26;;;;;;;28.60;21.70;;;;;;;16.17;54.16;95029.19;4992573;28;20046;-79
2021/09/19 05:41:51;;;;;;;32.13;23.30;;;;;;;16.25;54.24;95025.59;5010674;28;20037;-79
2021/09/19 05:44:18;;;;;;;52.03;29.77;;;;;;;16.34;54.26;95034.28;5010250;28;20383;-79
2021/09/19 05:46:43;;;;;;;36.88;24.05;;;;;;;16.38;54.27;95029.03;5012548;28;20029;-79
2021/09/19 05:49:08;;;;;;;35.03;23.48;;;;;;;16.45;54.04;95029.19;5009001;28;20756;-78
2021/09/19 05:51:34;;;;;;;23.23;19.85;;;;;;;16.54;53.98;95026.38;5008575;28;20117;-78
2021/09/19 05:53:59;;;;;;;23.88;19.40;;;;;;;16.65;53.90;95030.09;5008700;28;20053;-78
2021/09/19 05:56:24;;;;;;;25.75;20.73;;;;;;;16.59;54.24;95021.53;4992729;28;20029;-79
2021/09/19 05:58:50;;;;;;;27.63;22.27;;;;;;;16.79;54.13;95029.72;5005626;28;20029;-79
2021/09/19 06:01:15;;;;;;;26.27;21.38;;;;;;;16.82;54.02;95024.41;5010569;28;20034;-79
2021/09/19 06:03:41;;;;;;;26.92;23.13;;;;;;;16.93;54.05;95027.34;5010191;28;20121;-79
2021/09/19 06:06:07;;;;;;;34.28;24.45;;;;;;;16.86;53.81;94992.28;5010623;28;20061;-78
2021/09/19 06:08:32;;;;;;;20.23;18.25;;;;;;;16.30;54.71;95003.09;5009778;28;20061;-79
2021/09/19 06:10:58;;;;;;;30.17;23.10;;;;;;;16.72;54.22;94995.38;5012247;28;20034;-78
2021/09/19 06:13:23;;;;;;;29.95;22.55;;;;;;;16.88;54.12;95006.13;5010100;28;20057;-80
2021/09/19 06:15:48;;;;;;;23.73;21.02;;;;;;;16.83;54.08;94993.72;5010435;28;20531;-79
2021/09/19 06:18:14;;;;;;;31.33;23.80;;;;;;;17.16;53.62;95000.66;5010448;28;20034;-79
2021/09/19 06:20:40;;;;;;;23.48;20.95;;;;;;;16.79;54.44;94989.44;4992618;28;20038;-80
2021/09/19 06:23:06;;;;;;;26.77;21.98;;;;;;;16.98;54.50;94994.09;4995572;28;20037;-78
2021/09/19 06:25:31;;;;;;;24.95;21.83;;;;;;;17.19;54.33;94991.88;5014584;28;20034;-80
2021/09/19 06:27:57;;;;;;;27.27;22.98;;;;;;;17.36;53.97;95002.28;5014298;28;20057;-79
2021/09/19 06:30:22;;;;;;;23.40;20.75;;;;;;;17.60;53.76;94998.56;5014236;28;20030;-80
2021/09/19 06:32:47;;;;;;;22.85;20.58;;;;;;;17.79;53.34;95010.50;4996701;28;20038;-79
2021/09/19 06:35:13;;;;;;;27.25;23.85;;;;;;;17.88;53.38;94998.41;5014224;28;20141;-79
2021/09/19 06:37:38;;;;;;;27.08;22.35;;;;;;;18.05;53.16;95004.50;4997895;28;20391;-79
2021/09/19 06:40:05;;;;;;;25.30;22.60;;;;;;;18.13;53.21;94998.13;5013600;28;20038;-79
2021/09/19 06:42:30;;;;;;;29.33;25.25;;;;;;;18.20;53.16;94990.19;5013991;28;20038;-80
2021/09/19 06:44:55;;;;;;;24.40;21.83;;;;;;;18.36;52.92;94993.56;5013850;28;20042;-80
2021/09/19 06:47:21;;;;;;;26.95;21.10;;;;;;;18.41;52.86;94981.72;5013852;28;20058;-80
2021/09/19 06:49:46;;;;;;;23.73;21.33;;;;;;;18.47;52.47;94980.28;5026375;23;20076;-67
2021/09/19 06:52:12;;;;;;;24.65;22.05;;;;;;;18.74;52.47;94991.19;5010285;28;20084;-66
2021/09/19 06:54:37;;;;;;;19.83;18.17;;;;;;;18.50;52.60;94976.13;4992402;28;20046;-66
2021/09/19 06:57:03;;;;;;;21.30;19.30;;;;;;;18.39;52.90;94984.00;5010673;28;20042;-66
2021/09/19 06:59:28;;;;;;;18.95;17.10;;;;;;;17.82;54.07;94985.59;5010413;28;20124;-67
2021/09/19 07:01:53;;;;;;;19.90;18.00;;;;;;;17.58;55.48;94995.44;5012863;28;20058;-67
2021/09/19 07:04:19;;;;;;;19.02;17.08;;;;;;;18.40;53.91;94988.25;5010176;28;20046;-67
2021/09/19 07:06:46;;;;;;;17.50;15.75;;;;;;;18.49;52.92;94974.56;5010686;28;20108;-66
2021/09/19 07:09:12;;;;;;;17.77;16.17;;;;;;;18.43;53.14;94979.47;5009624;28;20389;-67
2021/09/19 07:11:37;;;;;;;18.88;17.08;;;;;;;18.25;53.42;94983.75;5010498;28;20045;-67
2021/09/19 07:14:03;;;;;;;17.50;16.00;;;;;;;18.71;52.45;94987.28;5012135;28;20030;-67
2021/09/19 07:16:29;;;;;;;19.40;17.70;;;;;;;18.13;53.78;94990.06;5010513;28;20395;-67
2021/09/19 07:18:54;;;;;;;17.88;16.15;;;;;;;17.77;55.17;94999.34;4992836;28;20042;-70
2021/09/19 07:21:22;;;;;;;17.20;15.70;;;;;;;18.39;53.66;94989.41;5010087;28;20034;-67
2021/09/19 07:23:47;;;;;;;18.13;16.65;;;;;;;18.67;52.63;94975.63;5009280;28;20449;-75
2021/09/19 07:26:13;;;;;;;18.58;16.90;;;;;;;18.74;53.02;94980.41;5010544;28;20034;-74
2021/09/19 07:28:38;;;;;;;17.95;16.38;;;;;;;18.56;52.81;94986.22;5001117;28;20014;-66
2021/09/19 07:31:04;;;;;;;18.10;16.33;;;;;;;18.81;52.60;94985.91;5010154;28;20096;-69
2021/09/19 07:33:29;;;;;;;17.25;15.77;;;;;;;18.42;53.06;94975.97;5009580;28;20049;-64
2021/09/19 07:35:55;;;;;;;16.25;14.73;;;;;;;18.72;52.91;94990.75;5010078;28;20037;-67
2021/09/19 07:38:21;;;;;;;15.68;14.38;;;;;;;18.70;52.42;94977.66;4991163;28;20125;-66
2021/09/19 07:40:47;;;;;;;14.43;13.23;;;;;;;18.84;51.52;94991.38;5017989;28;20093;-67
2021/09/19 07:43:13;;;;;;;12.82;11.70;;;;;;;18.67;51.74;94992.56;5016827;28;20045;-67
2021/09/19 07:45:38;;;;;;;12.57;11.57;;;;;;;19.07;51.29;94994.03;5010495;28;20042;-69
2021/09/19 07:48:12;;;;;;;12.52;11.52;;;;;;;18.93;51.52;94999.97;5010231;28;20045;-67
2021/09/19 07:50:38;;;;;;;11.90;10.80;;;;;;;19.48;50.22;95005.03;5009660;28;20038;-67
2021/09/19 07:53:05;;;;;;;12.65;11.55;;;;;;;19.56;49.74;94992.44;5011336;28;20034;-65
2021/09/19 07:55:32;;;;;;;12.30;11.30;;;;;;;19.54;49.82;95010.91;5001822;28;20038;-68
2021/09/19 07:57:58;;;;;;;11.00;10.10;;;;;;;18.99;50.84;95000.47;5009770;28;20488;-73
2021/09/19 08:00:24;;;;;;;12.02;10.95;;;;;;;19.08;50.98;94994.81;5008526;28;20439;-61
2021/09/19 08:02:50;;;;;;;12.25;11.25;;;;;;;19.43;51.12;94999.97;5008568;28;20053;-62
2021/09/19 08:05:15;;;;;;;11.82;10.82;;;;;;;19.07;51.01;94999.44;5008408;28;20652;-74
2021/09/19 08:07:42;;;;;;;12.50;11.50;;;;;;;19.50;49.86;94989.28;5012129;28;20026;-75
2021/09/19 08:10:08;;;;;;;13.68;12.68;;;;;;;19.49;50.02;95001.97;5010237;28;20524;-66
2021/09/19 08:12:33;;;;;;;13.32;12.23;;;;;;;19.74;49.69;95007.75;4992277;28;20472;-64
2021/09/19 08:14:59;;;;;;;14.55;13.10;;;;;;;19.62;50.10;94996.41;4995905;28;20096;-64
2021/09/19 08:17:24;;;;;;;12.55;11.45;;;;;;;19.72;49.98;95007.34;5009722;28;20026;-62
2021/09/19 08:19:49;;;;;;;11.88;10.98;;;;;;;20.05;49.05;95016.63;5010868;28;20026;-61
2021/09/19 08:22:15;;;;;;;12.52;11.43;;;;;;;19.47;50.99;95012.38;5008864;28;20129;-65
2021/09/19 08:24:40;;;;;;;12.60;11.50;;;;;;;19.45;50.77;95008.50;5008887;28;20592;-62
2021/09/19 08:27:07;;;;;;;12.50;11.38;;;;;;;19.36;51.07;95011.44;5009230;28;20041;-77
2021/09/19 08:29:33;;;;;;;11.63;10.70;;;;;;;20.08;49.49;94996.22;4999805;28;20046;-66
2021/09/19 08:31:58;;;;;;;13.07;11.98;;;;;;;20.09;48.80;95009.34;5011494;28;20538;-65
2021/09/19 08:34:23;;;;;;;12.38;11.30;;;;;;;20.00;49.37;95006.16;5007841;28;20099;-63
2021/09/19 08:36:49;;;;;;;13.32;12.15;;;;;;;19.81;50.89;95014.38;5009389;28;20045;-68
2021/09/19 08:39:14;;;;;;;16.27;14.00;;;;;;;20.34;50.57;95008.88;5008237;28;20096;-66
2021/09/19 08:41:40;;;;;;;14.77;13.52;;;;;;;19.87;50.50;95002.16;5009503;28;20423;-74
2021/09/19 08:44:05;;;;;;;14.70;13.60;;;;;;;19.95;50.15;95009.16;5011197;28;20034;-71
2021/09/19 08:46:31;;;;;;;16.02;14.73;;;;;;;19.48;50.75;95003.13;5009157;28;20499;-71
2021/09/19 08:48:57;;;;;;;14.93;13.77;;;;;;;19.32;51.48;95012.53;5008843;28;20112;-73
2021/09/19 08:51:22;;;;;;;15.77;14.57;;;;;;;19.92;49.96;95009.91;5009132;28;20115;-79
2021/09/19 08:53:48;;;;;;;16.48;15.18;;;;;;;20.04;50.25;95015.06;5007869;28;20490;-73
2021/09/19 08:56:25;;;;;;;16.25;14.95;;;;;;;19.61;50.86;95005.66;5008624;28;20491;-72
2021/09/19 08:58:53;;;;;;;17.75;16.33;;;;;;;19.55;51.06;94999.78;4995972;28;20061;-75
2021/09/19 09:01:19;;;;;;;14.90;13.70;;;;;;;19.99;50.52;95010.00;5007435;28;20137;-69
2021/09/19 09:03:44;;;;;;;17.38;16.08;;;;;;;19.15;53.05;95009.19;5008622;28;20125;-72
2021/09/19 09:06:10;;;;;;;18.52;16.88;;;;;;;19.43;51.55;95000.75;5008947;28;20041;-70
2021/09/19 09:08:35;;;;;;;17.67;16.30;;;;;;;19.80;51.46;95015.53;4995964;28;20061;-69
2021/09/19 09:11:04;;;;;;;18.48;16.98;;;;;;;19.77;50.93;95010.88;4988816;28;20431;-67
2021/09/19 09:13:31;;;;;;;18.13;16.73;;;;;;;20.23;50.39;95017.63;5008001;28;20042;-70
2021/09/19 09:16:04;;;;;;;18.48;16.88;;;;;;;20.20;50.36;95017.56;5008535;28;20041;-69
2021/09/19 09:18:42;;;;;;;19.35;17.75;;;;;;;19.84;51.41;95022.53;5008363;28;20045;-67
2021/09/19 09:21:11;;;;;;;18.27;16.67;;;;;;;20.51;49.55;95011.00;5008461;28;20030;-70
2021/09/19 09:23:41;;;;;;;18.48;16.88;;;;;;;20.29;50.30;95011.91;5007602;28;20042;-71
2021/09/19 09:26:37;;;;;;;20.55;18.38;;;;;;;19.68;51.60;95021.94;5008626;28;20026;-68
2021/09/19 09:29:06;;;;;;;20.65;18.88;;;;;;;19.84;51.54;95019.84;5006089;28;20049;-61
2021/09/19 09:31:37;;;;;;;18.65;17.05;;;;;;;19.86;51.99;95024.84;5008398;28;20056;-73
2021/09/19 09:34:15;;;;;;;19.33;17.73;;;;;;;20.60;50.65;95016.13;5008310;28;20034;-63
2021/09/19 09:36:55;;;;;;;20.70;18.85;;;;;;;20.67;51.25;95016.94;5008220;28;20133;-63
2021/09/19 09:39:42;;;;;;;20.25;18.55;;;;;;;21.02;49.28;95018.44;5007074;28;20109;-72
2021/09/19 09:42:16;;;;;;;20.45;18.52;;;;;;;20.54;50.01;95020.31;5007879;28;20041;-70
2021/09/19 09:44:50;;;;;;;21.02;19.15;;;;;;;19.99;52.31;95024.28;4996315;28;20060;-69
2021/09/19 09:47:19;;;;;;;19.38;17.52;;;;;;;19.62;54.00;95010.69;4990092;28;20175;-69
2021/09/19 09:49:53;;;;;;;21.63;19.70;;;;;;;20.25;51.82;95020.72;5009245;28;20037;-67
2021/09/19 09:52:21;;;;;;;22.80;20.50;;;;;;;19.87;52.88;95011.00;4990540;28;20115;-68
2021/09/19 09:54:54;;;;;;;22.63;20.25;;;;;;;20.47;52.10;95015.59;4981260;28;20072;-69
2021/09/19 09:57:52;;;;;;;24.20;21.42;;;;;;;20.55;51.15;95001.00;5008127;28;20040;-73
2021/09/19 10:00:20;;;;;;;22.13;19.90;;;;;;;20.42;52.23;95010.47;5007908;28;20180;-72
2021/09/19 10:02:51;;;;;;;23.42;21.17;;;;;;;20.88;50.98;95004.78;5007763;28;20187;-73
2021/09/19 10:05:19;;;;;;;23.52;21.10;;;;;;;20.82;50.77;95004.34;5007378;28;20022;-80
2021/09/19 10:07:45;;;;;;;23.00;20.50;;;;;;;20.77;50.96;95002.75;5009398;28;20090;-71
2021/09/19 10:10:16;;;;;;;23.40;21.13;;;;;;;20.91;50.25;95002.13;5007142;28;20038;-76
2021/09/19 10:12:42;;;;;;;21.53;19.73;;;;;;;21.11;50.45;95010.78;4992294;28;20407;-71
2021/09/19 10:15:09;;;;;;;22.38;20.27;;;;;;;21.12;49.95;95001.53;4993523;28;20284;-71
2021/09/19 10:17:35;;;;;;;23.17;20.95;;;;;;;20.43;52.29;95006.66;5008077;28;20041;-72
2021/09/19 10:20:11;;;;;;;21.20;19.20;;;;;;;20.96;50.31;94990.19;5009924;28;20022;-70
2021/09/19 10:23:03;;;;;;;19.13;17.50;;;;;;;20.37;51.80;94997.31;5008466;28;20103;-71
2021/09/19 10:25:48;;;;;;;18.35;16.73;;;;;;;21.18;50.86;95000.00;4951269;28;20057;-72
2021/09/19 10:28:18;;;;;;;17.17;15.77;;;;;;;21.35;49.36;94979.69;4998713;28;20034;-73
2021/09/19 10:31:08;;;;;;;17.58;15.98;;;;;;;20.96;50.46;94985.56;5006494;28;20046;-84
2021/09/19 10:33:39;;;;;;;15.52;14.23;;;;;;;21.02;49.53;94978.66;5006110;28;20034;-72
2021/09/19 10:36:29;;;;;;;17.43;15.83;;;;;;;21.65;49.04;94981.41;5005330;28;20387;-72
2021/09/19 10:39:27;;;;;;;14.18;12.88;;;;;;;23.11;44.66;94979.16;5006659;28;20312;-72
2021/09/19 10:42:13;;;;;;;12.20;11.18;;;;;;;23.79;43.55;94988.00;4988736;28;20087;-73
2021/09/19 10:44:45;;;;;;;11.25;10.40;;;;;;;24.35;39.95;94988.16;4988127;28;20077;-73
2021/09/19 10:47:12;;;;;;;9.73;9.02;;;;;;;25.35;39.29;94977.44;4971107;28;20038;-72
2021/09/19 10:49:39;;;;;;;11.60;10.70;;;;;;;24.75;39.59;94980.59;4971985;28;20026;-83
2021/09/19 10:52:04;;;;;;;10.90;9.90;;;;;;;24.38;40.34;94990.91;4987660;28;20042;-70
2021/09/19 10:54:42;;;;;;;13.23;9.93;;;;;;;24.11;41.26;94987.13;4974454;28;20575;-71
2021/09/19 10:57:29;;;;;;;12.30;11.30;;;;;;;23.78;42.99;94972.09;5007366;28;20156;-69
2021/09/19 11:00:13;;;;;;;12.27;11.27;;;;;;;23.17;44.40;94974.88;5006693;28;20050;-73
2021/09/19 11:02:41;;;;;;;11.25;10.18;;;;;;;22.04;46.08;94976.19;5008930;28;20045;-78
2021/09/19 11:05:26;;;;;;;11.20;10.30;;;;;;;22.56;44.07;94963.19;5009784;28;20384;-80
2021/09/19 11:08:06;;;;;;;10.52;9.63;;;;;;;22.61;44.13;94940.34;5008416;28;20038;-74
2021/09/19 11:10:32;;;;;;;10.73;9.82;;;;;;;23.07;42.31;94956.66;5003792;28;20077;-77
2021/09/19 11:12:57;;;;;;;10.95;10.00;;;;;;;24.01;40.33;94971.66;5011059;28;20812;-74
2021/09/19 11:15:25;;;;;;;11.52;10.63;;;;;;;24.05;41.18;94947.94;4993336;28;20034;-74
2021/09/19 11:17:51;;;;;;;9.70;9.00;;;;;;;24.84;40.51;94956.44;5010846;28;20125;-73